Time;durP1;ratioP1;P1;durP2;ratioP2;P2;SDS_P1;SDS_P2;PMS_P1;PMS_P2;Temp;Humidity;BMP_temperature;BMP_pressure;BME280_temperature;BME280_humidity;BME280_pressure;Samples;Min_cycle;Max_cycle;Signal;HPM_P1;HPM_P2
2023/07/18 00:02:10;;;;;;;1.80;0.35;;;14.40;99.90;;;;;;5017680;28;20041;-72
2023/07/18 00:04:38;;;;;;;2.30;0.57;;;14.40;99.90;;;;;;5037073;28;20037;-73
2023/07/18 00:07:06;;;;;;;3.15;0.57;;;14.40;99.90;;;;;;5052048;28;20029;-72
2023/07/18 00:09:32;;;;;;;1.85;0.40;;;14.40;99.90;;;;;;5047449;28;20037;-72
2023/07/18 00:11:59;;;;;;;2.88;0.70;;;14.40;99.90;;;;;;5032297;28;20444;-73
2023/07/18 00:14:25;;;;;;;2.85;0.55;;;14.40;99.90;;;;;;5047313;28;20020;-73
2023/07/18 00:16:52;;;;;;;3.88;0.75;;;14.30;99.90;;;;;;5033262;28;20600;-73
2023/07/18 00:19:19;;;;;;;3.58;0.60;;;14.40;99.90;;;;;;5018052;28;20330;-72
2023/07/18 00:21:47;;;;;;;3.75;0.65;;;14.40;99.90;;;;;;5033774;28;20403;-73
2023/07/18 00:24:14;;;;;;;2.65;0.57;;;14.30;99.90;;;;;;5002186;28;20048;-72
2023/07/18 00:26:41;;;;;;;4.00;0.60;;;14.30;99.90;;;;;;5032630;28;20040;-72
2023/07/18 00:29:07;;;;;;;6.45;0.60;;;14.30;99.90;;;;;;5033949;28;20442;-73
2023/07/18 00:31:34;;;;;;;2.92;0.65;;;14.30;99.90;;;;;;5034314;28;20033;-72
2023/07/18 00:34:03;;;;;;;1.67;0.47;;;14.30;99.90;;;;;;5019067;28;20044;-73
2023/07/18 00:36:29;;;;;;;3.38;0.65;;;14.30;99.90;;;;;;5032701;28;20033;-73
2023/07/18 00:38:56;;;;;;;3.92;0.82;;;14.20;99.90;;;;;;5054812;28;20028;-73
2023/07/18 00:41:23;;;;;;;2.17;0.68;;;14.20;99.90;;;;;;5050802;28;20047;-72
2023/07/18 00:43:50;;;;;;;2.38;0.60;;;14.20;99.90;;;;;;5032023;28;20502;-72
2023/07/18 00:46:18;;;;;;;3.65;1.15;;;14.20;99.90;;;;;;5033474;28;20025;-72
2023/07/18 00:48:44;;;;;;;2.55;0.88;;;14.20;99.90;;;;;;5035101;28;20471;-73
2023/07/18 00:51:11;;;;;;;2.75;0.50;;;14.20;99.90;;;;;;5013270;28;20055;-72
2023/07/18 00:53:40;;;;;;;3.67;0.60;;;14.10;99.90;;;;;;5035169;28;20036;-72
2023/07/18 00:56:06;;;;;;;6.30;0.82;;;14.00;99.90;;;;;;5018840;28;20403;-72
2023/07/18 00:58:33;;;;;;;3.15;0.65;;;14.00;99.90;;;;;;5036309;28;20073;-72
2023/07/18 01:01:00;;;;;;;2.75;0.73;;;14.00;99.90;;;;;;5031985;28;20381;-72
2023/07/18 01:03:27;;;;;;;3.50;0.60;;;13.90;99.90;;;;;;5033369;28;20036;-73
2023/07/18 01:05:54;;;;;;;4.82;1.25;;;13.90;99.90;;;;;;5034220;28;20052;-73
2023/07/18 01:08:20;;;;;;;3.10;0.68;;;13.90;99.90;;;;;;5054455;28;20024;-72
2023/07/18 01:10:47;;;;;;;3.00;0.60;;;13.80;99.90;;;;;;5034551;28;20471;-73
2023/07/18 01:13:13;;;;;;;4.32;0.70;;;13.80;99.90;;;;;;5030805;28;20036;-72
2023/07/18 01:15:40;;;;;;;5.82;0.80;;;13.80;99.90;;;;;;5031843;28;20427;-72
2023/07/18 01:18:08;;;;;;;6.40;1.02;;;13.70;99.90;;;;;;5050635;28;20040;-73
2023/07/18 01:20:36;;;;;;;5.18;1.17;;;13.70;99.90;;;;;;5054552;28;20498;-73
2023/07/18 01:23:03;;;;;;;2.25;0.90;;;13.70;99.90;;;;;;5016684;28;20040;-72
2023/07/18 01:25:30;;;;;;;4.03;0.73;;;13.70;99.90;;;;;;5031246;28;20043;-72
2023/07/18 01:27:59;;;;;;;2.53;0.50;;;13.70;99.90;;;;;;5012610;28;20037;-72
2023/07/18 01:30:28;;;;;;;2.30;0.70;;;13.60;99.90;;;;;;5049672;28;20051;-73
2023/07/18 01:32:56;;;;;;;3.13;0.50;;;13.60;99.90;;;;;;5032366;28;20044;-72
2023/07/18 01:35:25;;;;;;;3.65;0.70;;;13.60;99.90;;;;;;5033413;28;20037;-73
2023/07/18 01:37:52;;;;;;;1.75;0.57;;;13.50;99.90;;;;;;5051746;28;20032;-72
2023/07/18 01:40:20;;;;;;;2.78;0.70;;;13.50;99.90;;;;;;5031162;28;20032;-73
2023/07/18 01:42:54;;;;;;;2.63;0.60;;;13.50;99.90;;;;;;5033385;28;20040;-72
2023/07/18 01:45:22;;;;;;;1.67;0.60;;;13.40;99.90;;;;;;5051476;28;20040;-73
2023/07/18 01:47:49;;;;;;;3.50;0.95;;;13.40;99.90;;;;;;5032506;28;20024;-72
2023/07/18 01:50:16;;;;;;;3.53;0.73;;;13.40;99.90;;;;;;5049692;28;20020;-72
2023/07/18 01:52:42;;;;;;;2.83;0.70;;;13.40;99.90;;;;;;5014719;28;20041;-73
2023/07/18 01:55:09;;;;;;;2.67;0.70;;;13.30;99.90;;;;;;5002609;28;20041;-72
2023/07/18 01:57:36;;;;;;;2.20;0.50;;;13.30;99.90;;;;;;5050376;28;20032;-72
2023/07/18 02:00:04;;;;;;;2.90;0.60;;;13.30;99.90;;;;;;5000439;28;20025;-72
2023/07/18 02:02:41;;;;;;;2.90;0.80;;;13.30;99.90;;;;;;5033072;28;20036;-72
2023/07/18 02:05:09;;;;;;;2.15;0.80;;;13.20;99.90;;;;;;5018039;28;20748;-73
2023/07/18 02:07:36;;;;;;;4.35;0.95;;;13.20;99.90;;;;;;5018752;28;20036;-72
2023/07/18 02:10:02;;;;;;;2.50;0.82;;;13.20;99.90;;;;;;5017475;28;20033;-73
2023/07/18 02:12:30;;;;;;;1.90;0.70;;;13.20;99.90;;;;;;5033773;28;21049;-72
2023/07/18 02:14:57;;;;;;;2.30;0.60;;;13.20;99.90;;;;;;5017492;28;20036;-73
2023/07/18 02:17:23;;;;;;;3.28;0.60;;;13.20;99.90;;;;;;5014831;28;20495;-73
2023/07/18 02:19:50;;;;;;;3.47;0.80;;;13.20;99.90;;;;;;5031272;28;20537;-72
2023/07/18 02:22:19;;;;;;;2.50;0.55;;;13.10;99.90;;;;;;5031648;28;20025;-73
2023/07/18 02:24:45;;;;;;;1.42;0.60;;;13.10;99.90;;;;;;5011554;28;20033;-72
2023/07/18 02:27:11;;;;;;;4.13;0.82;;;13.10;99.90;;;;;;5013051;28;20024;-72
2023/07/18 02:29:38;;;;;;;2.75;0.70;;;13.10;99.90;;;;;;5030537;28;20778;-73
2023/07/18 02:32:04;;;;;;;3.75;0.80;;;13.00;99.90;;;;;;5032742;28;20035;-73
2023/07/18 02:34:31;;;;;;;2.55;0.70;;;13.00;99.90;;;;;;5020443;28;20040;-72
2023/07/18 02:36:57;;;;;;;2.83;0.65;;;13.00;99.90;;;;;;5050217;28;20028;-72
2023/07/18 02:39:24;;;;;;;2.65;0.70;;;13.00;99.90;;;;;;5033699;28;20063;-73
2023/07/18 02:41:50;;;;;;;2.40;0.82;;;13.00;99.90;;;;;;5020891;28;20037;-72
2023/07/18 02:44:17;;;;;;;3.60;0.95;;;13.00;99.90;;;;;;5036979;28;20043;-72
2023/07/18 02:46:43;;;;;;;3.95;0.75;;;13.00;99.90;;;;;;5005980;28;20041;-72
2023/07/18 02:49:10;;;;;;;2.28;0.90;;;13.00;99.90;;;;;;5019980;28;20033;-72
2023/07/18 02:51:37;;;;;;;3.70;0.80;;;13.00;99.90;;;;;;5015982;28;20495;-73
2023/07/18 02:54:03;;;;;;;3.53;0.90;;;13.00;99.90;;;;;;5015460;28;20036;-73
2023/07/18 02:56:30;;;;;;;3.08;0.98;;;13.00;99.90;;;;;;5056686;28;20037;-72
2023/07/18 02:58:56;;;;;;;3.33;0.90;;;13.00;99.90;;;;;;5038715;28;20036;-72
2023/07/18 03:01:22;;;;;;;2.30;0.77;;;13.00;99.90;;;;;;5025486;28;20052;-72
2023/07/18 03:03:49;;;;;;;3.28;0.95;;;13.00;99.90;;;;;;5052029;28;20039;-73
2023/07/18 03:06:15;;;;;;;3.92;1.00;;;13.00;99.90;;;;;;5052016;28;20036;-72
2023/07/18 03:08:42;;;;;;;2.53;0.85;;;12.90;99.90;;;;;;5033284;28;20032;-72
2023/07/18 03:11:09;;;;;;;1.95;0.70;;;12.90;99.90;;;;;;5055935;28;20039;-72
2023/07/18 03:13:36;;;;;;;1.95;0.70;;;12.90;99.90;;;;;;5035360;28;20115;-72
2023/07/18 03:16:04;;;;;;;1.80;0.88;;;12.90;99.90;;;;;;5032921;28;20029;-72
2023/07/18 03:18:31;;;;;;;1.98;1.00;;;12.90;99.90;;;;;;5017972;28;21369;-72
2023/07/18 03:20:58;;;;;;;4.38;1.00;;;12.90;99.90;;;;;;5019056;28;20381;-73
2023/07/18 03:23:27;;;;;;;4.63;1.38;;;12.90;99.90;;;;;;5054985;28;20032;-72
2023/07/18 03:25:54;;;;;;;5.30;1.23;;;12.90;99.90;;;;;;5031832;28;20032;-72
2023/07/18 03:28:23;;;;;;;4.13;1.15;;;12.90;99.90;;;;;;5054456;28;20043;-73
2023/07/18 03:30:49;;;;;;;2.85;0.90;;;12.90;99.90;;;;;;5019889;28;20220;-73
2023/07/18 03:33:16;;;;;;;3.03;1.02;;;12.90;99.90;;;;;;5017201;28;20048;-74
2023/07/18 03:35:42;;;;;;;4.03;1.20;;;12.80;99.90;;;;;;5034818;28;20043;-73
2023/07/18 03:38:09;;;;;;;5.13;1.52;;;12.90;99.90;;;;;;5037094;28;20039;-73
2023/07/18 03:40:35;;;;;;;8.75;5.57;;;12.90;99.90;;;;;;5055049;28;20118;-74
2023/07/18 03:43:02;;;;;;;6.35;4.25;;;12.90;99.90;;;;;;5055118;28;20040;-73
2023/07/18 03:45:28;;;;;;;3.80;2.50;;;12.90;99.90;;;;;;5035556;28;20099;-74
2023/07/18 03:47:55;;;;;;;4.45;2.05;;;12.90;99.90;;;;;;5032394;28;20040;-74
2023/07/18 03:50:21;;;;;;;5.18;1.92;;;12.90;99.90;;;;;;5053794;28;20025;-72
2023/07/18 03:52:48;;;;;;;5.03;2.10;;;12.90;99.90;;;;;;5033719;28;20041;-72
2023/07/18 03:55:15;;;;;;;4.32;1.90;;;12.90;99.90;;;;;;5053799;28;20036;-72
2023/07/18 03:57:41;;;;;;;5.57;2.00;;;12.90;99.90;;;;;;5016972;28;20155;-72
2023/07/18 04:00:14;;;;;;;3.45;1.23;;;12.90;99.90;;;;;;5035736;28;20521;-72
2023/07/18 04:02:44;;;;;;;3.30;1.40;;;12.90;99.90;;;;;;5039049;28;21400;-72
2023/07/18 04:05:11;;;;;;;3.72;1.00;;;12.90;99.90;;;;;;5035527;28;20039;-72
2023/07/18 04:07:38;;;;;;;3.08;1.10;;;12.90;99.90;;;;;;5035249;28;20078;-72
2023/07/18 04:10:05;;;;;;;2.45;1.00;;;12.90;99.90;;;;;;5036691;28;20021;-74
2023/07/18 04:12:31;;;;;;;3.03;1.08;;;12.90;99.90;;;;;;5057200;28;20083;-72
2023/07/18 04:14:57;;;;;;;3.10;1.30;;;12.90;99.90;;;;;;5037143;28;20032;-71
2023/07/18 04:17:24;;;;;;;3.85;1.27;;;12.90;99.90;;;;;;5037895;28;20055;-72
2023/07/18 04:19:52;;;;;;;2.67;1.00;;;12.90;99.90;;;;;;5034487;28;21549;-72
2023/07/18 04:22:18;;;;;;;1.52;0.80;;;12.90;99.90;;;;;;5053140;28;20059;-72
2023/07/18 04:24:45;;;;;;;2.63;0.75;;;13.00;99.90;;;;;;5053534;28;20036;-72
2023/07/18 04:27:11;;;;;;;5.10;1.25;;;13.00;99.90;;;;;;5033795;28;20415;-72
2023/07/18 04:29:37;;;;;;;2.42;0.90;;;13.00;99.90;;;;;;5020962;28;20028;-72
2023/07/18 04:32:04;;;;;;;4.60;1.00;;;13.00;99.90;;;;;;5036751;28;20035;-72
2023/07/18 04:34:31;;;;;;;3.83;1.30;;;13.00;99.90;;;;;;5035196;28;20944;-72
2023/07/18 04:36:57;;;;;;;2.67;1.15;;;13.00;99.90;;;;;;5032525;28;20032;-72
2023/07/18 04:39:24;;;;;;;3.95;1.30;;;13.00;99.90;;;;;;5054700;28;20032;-72
2023/07/18 04:41:50;;;;;;;3.97;1.20;;;13.10;99.90;;;;;;5052144;28;20039;-72
2023/07/18 04:44:17;;;;;;;2.33;1.10;;;13.10;99.90;;;;;;5049766;28;20391;-72
2023/07/18 04:46:43;;;;;;;2.58;1.10;;;13.20;99.90;;;;;;5054342;28;20507;-72
2023/07/18 04:49:09;;;;;;;4.20;1.00;;;13.20;99.90;;;;;;5022686;28;20032;-72
2023/07/18 04:51:36;;;;;;;3.00;1.20;;;13.20;99.90;;;;;;5035841;28;20043;-72
2023/07/18 04:54:02;;;;;;;3.88;1.10;;;13.30;99.90;;;;;;5036274;28;20048;-72
2023/07/18 04:56:29;;;;;;;3.83;0.95;;;13.30;99.90;;;;;;5034544;28;20035;-72
2023/07/18 04:58:55;;;;;;;3.90;1.10;;;13.40;99.90;;;;;;5052708;28;20455;-72
2023/07/18 05:01:21;;;;;;;3.30;1.15;;;13.50;99.90;;;;;;5033506;28;20037;-72
2023/07/18 05:03:48;;;;;;;3.10;1.17;;;13.70;99.90;;;;;;5034723;28;20032;-71
2023/07/18 05:06:14;;;;;;;3.60;1.40;;;13.80;99.90;;;;;;5034396;28;20205;-72
2023/07/18 05:08:40;;;;;;;3.92;1.27;;;14.00;99.90;;;;;;5031166;28;20035;-72
2023/07/18 05:11:07;;;;;;;2.75;1.20;;;14.10;99.90;;;;;;5034769;28;20025;-71
2023/07/18 05:13:33;;;;;;;3.33;1.33;;;14.30;99.90;;;;;;5050884;28;20353;-72
2023/07/18 05:16:04;;;;;;;3.78;1.58;;;14.40;99.90;;;;;;5036940;28;20031;-72
2023/07/18 05:18:30;;;;;;;3.85;1.48;;;14.70;99.90;;;;;;5047086;28;20032;-72
2023/07/18 05:20:57;;;;;;;4.40;1.50;;;14.80;99.90;;;;;;5030801;28;20040;-72
2023/07/18 05:23:23;;;;;;;2.40;1.35;;;15.10;99.90;;;;;;5051900;28;20033;-72
2023/07/18 05:25:50;;;;;;;5.03;2.10;;;15.20;99.90;;;;;;5033206;28;20036;-72
2023/07/18 05:28:17;;;;;;;3.50;1.70;;;15.40;99.90;;;;;;5030739;28;20040;-72
2023/07/18 05:30:43;;;;;;;3.30;1.58;;;15.60;99.90;;;;;;5015028;28;20045;-73
2023/07/18 05:33:12;;;;;;;6.22;2.70;;;15.80;99.90;;;;;;5050384;28;20041;-72
2023/07/18 05:35:38;;;;;;;5.55;2.50;;;16.00;99.90;;;;;;5033150;28;20048;-72
2023/07/18 05:38:05;;;;;;;4.80;2.72;;;16.10;99.90;;;;;;5035872;28;20391;-72
2023/07/18 05:40:32;;;;;;;4.25;2.50;;;16.30;99.90;;;;;;5031655;28;20033;-72
2023/07/18 05:43:00;;;;;;;4.57;2.30;;;16.30;99.90;;;;;;5016194;28;20033;-72
2023/07/18 05:45:27;;;;;;;7.10;2.85;;;16.30;99.90;;;;;;5031109;28;20073;-72
2023/07/18 05:47:53;;;;;;;5.80;2.35;;;16.30;99.90;;;;;;5019466;28;20822;-72
2023/07/18 05:50:19;;;;;;;4.15;2.15;;;16.20;99.90;;;;;;5035241;28;20032;-72
2023/07/18 05:52:48;;;;;;;4.00;1.83;;;16.30;99.90;;;;;;5030881;28;20040;-72
2023/07/18 05:55:14;;;;;;;5.85;2.40;;;16.40;99.90;;;;;;5032250;28;20492;-72
2023/07/18 05:57:41;;;;;;;5.38;2.65;;;16.60;99.90;;;;;;5014479;28;20395;-72
2023/07/18 06:00:10;;;;;;;5.40;2.50;;;16.80;99.90;;;;;;5049222;28;20045;-72
2023/07/18 06:02:40;;;;;;;6.88;2.97;;;17.00;99.90;;;;;;5019797;28;20037;-72
2023/07/18 06:05:06;;;;;;;7.05;2.97;;;17.20;99.90;;;;;;5035411;28;20119;-72
2023/07/18 06:07:33;;;;;;;4.07;2.20;;;17.30;99.90;;;;;;5036348;28;20403;-72
2023/07/18 06:09:59;;;;;;;5.50;2.53;;;17.50;99.90;;;;;;5053918;28;20039;-72
2023/07/18 06:12:26;;;;;;;2.85;1.65;;;17.60;99.90;;;;;;5052473;28;20037;-73
2023/07/18 06:14:54;;;;;;;7.18;2.35;;;17.80;99.90;;;;;;5055339;28;20056;-73
2023/07/18 06:17:21;;;;;;;7.43;3.20;;;18.20;99.90;;;;;;5036382;28;20043;-73
2023/07/18 06:19:47;;;;;;;5.25;1.92;;;18.50;99.90;;;;;;5053347;28;20040;-73
2023/07/18 06:22:13;;;;;;;3.30;1.73;;;18.80;99.90;;;;;;5036454;28;20036;-73
2023/07/18 06:24:41;;;;;;;4.35;2.05;;;19.00;99.90;;;;;;5036711;28;20056;-73
2023/07/18 06:27:07;;;;;;;2.78;1.65;;;19.10;99.90;;;;;;5037437;28;20051;-73
2023/07/18 06:29:33;;;;;;;3.13;1.73;;;19.30;99.90;;;;;;5051678;28;20335;-73
2023/07/18 06:32:02;;;;;;;5.22;1.30;;;19.50;99.90;;;;;;5055264;28;20048;-73
2023/07/18 06:34:31;;;;;;;5.82;2.03;;;19.60;99.90;;;;;;5049720;28;20036;-73
2023/07/18 06:36:59;;;;;;;6.10;2.13;;;19.70;99.90;;;;;;5052115;28;20036;-72
2023/07/18 06:39:26;;;;;;;3.42;1.67;;;19.80;99.90;;;;;;5031099;28;20392;-73
2023/07/18 06:41:52;;;;;;;5.50;2.10;;;19.80;99.90;;;;;;5051726;28;20036;-72
2023/07/18 06:44:19;;;;;;;4.20;2.00;;;19.90;99.90;;;;;;5050536;28;20043;-72
2023/07/18 06:46:46;;;;;;;3.03;1.25;;;20.00;99.90;;;;;;5017868;28;20475;-72
2023/07/18 06:49:13;;;;;;;4.53;2.05;;;20.30;99.90;;;;;;5036322;28;20033;-72
2023/07/18 06:51:39;;;;;;;3.28;1.50;;;20.60;99.90;;;;;;5035108;28;20029;-72
2023/07/18 06:54:05;;;;;;;3.08;1.40;;;20.70;99.90;;;;;;5052743;28;20036;-72
2023/07/18 06:56:32;;;;;;;6.82;1.58;;;20.90;99.90;;;;;;5052359;28;20043;-71
2023/07/18 06:58:58;;;;;;;3.47;1.45;;;20.90;99.90;;;;;;5051095;28;20024;-72
2023/07/18 07:01:24;;;;;;;4.45;1.67;;;20.90;99.90;;;;;;5048876;28;20055;-72
2023/07/18 07:03:50;;;;;;;4.45;2.10;;;20.90;99.90;;;;;;5032827;28;20191;-72
2023/07/18 07:06:18;;;;;;;5.05;2.20;;;20.90;99.90;;;;;;5053343;28;20037;-72
2023/07/18 07:08:44;;;;;;;3.70;1.55;;;21.00;99.90;;;;;;5035108;28;20041;-72
2023/07/18 07:11:10;;;;;;;4.10;1.38;;;21.10;99.90;;;;;;5032072;28;20039;-72
2023/07/18 07:13:37;;;;;;;4.95;1.67;;;21.20;99.90;;;;;;5053285;28;20037;-72
2023/07/18 07:16:05;;;;;;;5.55;1.77;;;21.20;99.90;;;;;;5034777;28;20021;-72
2023/07/18 07:18:31;;;;;;;2.92;0.98;;;21.20;99.90;;;;;;5051865;28;20036;-72
2023/07/18 07:20:58;;;;;;;3.35;0.95;;;21.30;99.90;;;;;;5056423;28;20024;-72
2023/07/18 07:23:24;;;;;;;4.40;1.73;;;21.40;99.90;;;;;;5057722;28;20041;-71
2023/07/18 07:25:51;;;;;;;4.60;1.40;;;21.40;99.90;;;;;;5038034;28;20479;-72
2023/07/18 07:28:17;;;;;;;3.95;1.33;;;21.50;99.90;;;;;;5059943;28;20425;-72
2023/07/18 07:30:43;;;;;;;3.60;1.02;;;21.50;99.90;;;;;;5039236;28;20025;-72
2023/07/18 07:33:10;;;;;;;2.85;1.15;;;21.40;99.90;;;;;;5058800;28;20032;-72
2023/07/18 07:35:37;;;;;;;5.95;1.42;;;21.50;99.90;;;;;;5055971;28;20037;-72
2023/07/18 07:38:03;;;;;;;4.55;1.42;;;21.60;99.90;;;;;;5035302;28;20040;-72
2023/07/18 07:40:29;;;;;;;3.72;1.30;;;21.60;99.90;;;;;;5020677;28;20037;-72
2023/07/18 07:42:56;;;;;;;5.18;1.38;;;21.70;99.90;;;;;;5054206;28;20036;-72
2023/07/18 07:45:22;;;;;;;3.05;1.00;;;21.70;99.90;;;;;;5057226;28;20028;-72
2023/07/18 07:47:48;;;;;;;4.40;1.10;;;21.80;99.90;;;;;;5057777;28;20033;-72
2023/07/18 07:50:15;;;;;;;4.85;1.08;;;21.80;99.90;;;;;;5038413;28;20044;-73
2023/07/18 07:52:42;;;;;;;2.13;0.98;;;21.90;99.90;;;;;;5038112;28;20032;-74
2023/07/18 07:55:11;;;;;;;3.83;1.23;;;22.00;99.90;;;;;;5036708;28;20032;-74
2023/07/18 07:57:38;;;;;;;3.35;1.00;;;22.10;99.90;;;;;;5054415;28;20036;-71
2023/07/18 08:00:07;;;;;;;5.28;1.52;;;22.10;99.90;;;;;;5053847;28;20032;-73
2023/07/18 08:02:33;;;;;;;3.08;1.42;;;22.20;99.90;;;;;;5055425;28;20403;-73
2023/07/18 08:05:00;;;;;;;5.40;1.90;;;22.30;99.90;;;;;;5018896;28;20045;-72
2023/07/18 08:07:26;;;;;;;2.90;1.15;;;22.40;99.90;;;;;;5054114;28;20048;-72
2023/07/18 08:09:52;;;;;;;3.45;1.00;;;22.60;99.90;;;;;;5051642;28;20033;-72
2023/07/18 08:12:20;;;;;;;2.10;0.80;;;22.70;99.90;;;;;;5055672;28;20048;-72
2023/07/18 08:14:48;;;;;;;2.65;0.80;;;22.80;99.90;;;;;;5056862;28;20383;-72
2023/07/18 08:17:16;;;;;;;2.35;0.70;;;22.90;99.90;;;;;;5023052;28;20039;-72
2023/07/18 08:19:43;;;;;;;2.67;0.70;;;22.90;99.90;;;;;;5035400;28;20331;-72
2023/07/18 08:22:10;;;;;;;2.00;0.80;;;23.00;99.90;;;;;;5037404;28;20075;-72
2023/07/18 08:24:37;;;;;;;3.53;0.90;;;23.10;99.90;;;;;;5049917;28;20033;-72
2023/07/18 08:27:04;;;;;;;4.13;0.68;;;23.20;99.90;;;;;;5018853;28;20036;-74
2023/07/18 08:29:33;;;;;;;2.83;0.60;;;23.30;99.90;;;;;;5056457;28;20039;-74
2023/07/18 08:31:59;;;;;;;2.88;0.50;;;23.30;99.90;;;;;;5020685;28;20033;-74
2023/07/18 08:34:26;;;;;;;1.48;0.50;;;23.50;99.90;;;;;;5035894;28;20044;-73
2023/07/18 08:36:53;;;;;;;4.28;1.48;;;23.60;99.90;;;;;;5038238;28;20032;-73
2023/07/18 08:39:19;;;;;;;3.13;0.85;;;23.70;99.90;;;;;;5035642;28;20842;-73
2023/07/18 08:41:51;;;;;;;3.95;1.02;;;23.70;99.90;;;;;;5036017;28;20029;-72
2023/07/18 08:44:19;;;;;;;3.38;0.70;;;23.80;99.90;;;;;;5038248;28;20036;-72
2023/07/18 08:46:47;;;;;;;1.75;0.73;;;23.90;99.90;;;;;;5037429;28;20044;-72
2023/07/18 08:49:17;;;;;;;2.60;0.60;;;24.00;99.90;;;;;;5036701;28;20028;-72
2023/07/18 08:51:44;;;;;;;3.45;0.50;;;24.10;99.90;;;;;;5035156;28;20035;-72
2023/07/18 08:54:12;;;;;;;2.97;0.70;;;24.10;99.90;;;;;;5056078;28;20041;-72
2023/07/18 08:56:42;;;;;;;2.85;0.50;;;24.20;99.90;;;;;;5052017;28;20589;-72
2023/07/18 08:59:10;;;;;;;1.90;0.50;;;24.30;99.90;;;;;;5037947;28;20036;-72
2023/07/18 09:01:46;;;;;;;1.20;0.40;;;24.30;99.90;;;;;;5053148;28;20037;-72
2023/07/18 09:04:12;;;;;;;2.42;0.43;;;24.40;99.90;;;;;;5034065;28;20411;-72
2023/07/18 09:06:59;;;;;;;1.45;0.40;;;24.50;99.90;;;;;;5022335;28;20387;-72
2023/07/18 09:09:26;;;;;;;1.70;0.50;;;24.70;99.60;;;;;;5022339;28;20032;-73
2023/07/18 09:12:00;;;;;;;1.77;0.40;;;24.70;99.10;;;;;;5055417;28;20032;-73
2023/07/18 09:14:31;;;;;;;1.40;0.30;;;24.80;99.40;;;;;;5054016;28;20047;-73
2023/07/18 09:17:04;;;;;;;0.93;0.38;;;25.00;99.30;;;;;;5054921;28;20431;-74
2023/07/18 09:19:45;;;;;;;2.05;0.50;;;25.00;98.70;;;;;;5049776;28;20115;-73
2023/07/18 09:22:13;;;;;;;2.38;0.52;;;25.00;98.10;;;;;;5040074;28;20033;-73
2023/07/18 09:24:41;;;;;;;1.35;0.40;;;25.00;97.70;;;;;;5018018;28;20032;-72
2023/07/18 09:27:14;;;;;;;1.40;0.30;;;25.00;97.90;;;;;;5036038;28;20040;-72
2023/07/18 09:29:45;;;;;;;3.00;0.35;;;25.10;97.80;;;;;;5056509;28;20431;-72
2023/07/18 09:32:20;;;;;;;1.10;0.40;;;25.30;97.50;;;;;;5055860;28;20344;-71
2023/07/18 09:34:57;;;;;;;1.42;0.40;;;25.50;97.30;;;;;;5034806;28;20044;-72
2023/07/18 09:37:24;;;;;;;0.93;0.30;;;25.70;97.00;;;;;;5055313;28;20035;-73
2023/07/18 09:39:51;;;;;;;1.20;0.50;;;25.80;95.90;;;;;;5049629;28;20029;-73
2023/07/18 09:42:19;;;;;;;0.63;0.30;;;25.80;95.50;;;;;;5054173;28;20039;-73
2023/07/18 09:44:48;;;;;;;1.02;0.32;;;25.70;95.40;;;;;;5052909;28;20047;-73
2023/07/18 09:47:16;;;;;;;1.17;0.30;;;25.80;95.60;;;;;;5035066;28;20040;-73
2023/07/18 09:49:44;;;;;;;1.55;0.38;;;25.80;94.80;;;;;;5036586;28;20036;-73
2023/07/18 09:52:11;;;;;;;1.13;0.20;;;25.90;94.90;;;;;;5037825;28;20383;-73
2023/07/18 09:54:39;;;;;;;2.67;0.30;;;26.10;94.60;;;;;;5037596;28;20063;-73
2023/07/18 09:57:11;;;;;;;1.50;0.40;;;26.10;94.10;;;;;;5052714;28;20399;-73
2023/07/18 09:59:39;;;;;;;1.23;0.40;;;26.10;94.10;;;;;;5036038;28;20028;-73
2023/07/18 10:02:09;;;;;;;2.85;0.30;;;26.20;93.10;;;;;;5050262;28;20033;-75
2023/07/18 10:04:36;;;;;;;1.27;0.38;;;26.20;93.40;;;;;;5035802;28;20454;-75
2023/07/18 10:07:04;;;;;;;2.65;0.30;;;26.20;92.90;;;;;;5034745;28;20028;-74
2023/07/18 10:09:32;;;;;;;1.60;0.40;;;26.20;92.70;;;;;;5055091;28;20039;-72
2023/07/18 10:11:58;;;;;;;1.17;0.40;;;26.20;92.10;;;;;;5020101;28;20043;-74
2023/07/18 10:14:47;;;;;;;1.25;0.30;;;26.30;91.80;;;;;;5035550;28;20036;-74
2023/07/18 10:17:38;;;;;;;1.73;0.40;;;26.40;91.80;;;;;;5055012;28;20040;-74
2023/07/18 10:20:17;;;;;;;1.25;0.40;;;26.60;91.80;;;;;;5053444;28;20479;-73
2023/07/18 10:22:58;;;;;;;1.38;0.30;;;26.60;91.10;;;;;;5053231;28;20033;-74
2023/07/18 10:25:29;;;;;;;0.80;0.30;;;26.80;90.80;;;;;;5034257;28;20031;-75
2023/07/18 10:27:57;;;;;;;1.20;0.40;;;26.90;90.50;;;;;;5053431;28;20032;-73
2023/07/18 10:30:36;;;;;;;5.47;0.40;;;26.90;90.20;;;;;;5057401;28;20037;-73
2023/07/18 10:33:03;;;;;;;2.47;0.32;;;27.00;90.10;;;;;;5054526;28;20021;-73
2023/07/18 10:35:30;;;;;;;0.95;0.32;;;27.00;89.00;;;;;;5035564;28;20037;-73
2023/07/18 10:38:09;;;;;;;1.63;0.30;;;27.00;88.70;;;;;;5053134;28;20420;-73
2023/07/18 10:40:42;;;;;;;1.40;0.40;;;27.20;88.60;;;;;;5029039;28;20043;-73
2023/07/18 10:43:18;;;;;;;1.15;0.30;;;27.30;86.60;;;;;;5053674;28;20040;-73
2023/07/18 10:45:45;;;;;;;1.45;0.30;;;27.40;86.10;;;;;;5036212;28;20039;-73
2023/07/18 10:48:17;;;;;;;0.70;0.30;;;27.60;86.70;;;;;;5037528;28;20476;-73
2023/07/18 10:50:46;;;;;;;2.13;0.40;;;27.80;83.20;;;;;;5055954;28;20024;-73
2023/07/18 10:53:13;;;;;;;1.27;0.30;;;27.90;82.60;;;;;;5035658;28;20036;-73
2023/07/18 10:55:40;;;;;;;1.90;0.40;;;28.00;82.10;;;;;;5037194;28;20025;-73
2023/07/18 10:58:13;;;;;;;1.63;0.32;;;28.20;82.30;;;;;;5039820;28;20377;-73
2023/07/18 11:00:40;;;;;;;4.15;0.40;;;28.50;82.00;;;;;;5054299;28;20506;-73
2023/07/18 11:03:17;;;;;;;1.15;0.40;;;28.60;80.10;;;;;;5008240;28;20478;-73
2023/07/18 11:05:47;;;;;;;3.20;0.40;;;28.70;80.10;;;;;;5055434;28;20248;-73
2023/07/18 11:08:23;;;;;;;1.65;0.30;;;29.00;79.20;;;;;;5057738;28;20025;-73
2023/07/18 11:11:01;;;;;;;0.95;0.40;;;29.30;77.50;;;;;;5056934;28;20029;-73
2023/07/18 11:13:32;;;;;;;3.45;0.38;;;29.60;76.00;;;;;;5041828;28;20025;-73
2023/07/18 11:16:05;;;;;;;1.38;0.50;;;29.80;75.50;;;;;;5056415;28;20032;-73
2023/07/18 11:18:35;;;;;;;3.17;0.40;;;30.10;75.60;;;;;;5056816;28;20041;-73
2023/07/18 11:21:06;;;;;;;1.02;0.30;;;30.50;75.10;;;;;;5051064;28;20029;-73
2023/07/18 11:23:34;;;;;;;1.98;0.32;;;30.80;74.40;;;;;;5058358;28;20372;-73
2023/07/18 11:26:10;;;;;;;1.65;0.50;;;31.20;72.10;;;;;;5056161;28;20422;-73
2023/07/18 11:28:37;;;;;;;1.63;0.40;;;31.40;70.10;;;;;;5058187;28;20547;-73
2023/07/18 11:31:03;;;;;;;1.45;0.30;;;31.60;69.80;;;;;;5059077;28;20029;-74
2023/07/18 11:33:31;;;;;;;0.98;0.40;;;31.90;68.50;;;;;;5055226;28;20037;-73
2023/07/18 11:35:58;;;;;;;3.50;0.40;;;32.10;68.50;;;;;;5040991;28;20037;-73
2023/07/18 11:38:29;;;;;;;2.55;0.40;;;32.40;67.60;;;;;;5003742;28;20048;-73
2023/07/18 11:40:55;;;;;;;1.90;0.50;;;32.50;66.90;;;;;;5056194;28;20039;-73
2023/07/18 11:43:22;;;;;;;2.00;0.57;;;32.60;66.20;;;;;;5020917;28;20032;-73
2023/07/18 11:45:55;;;;;;;3.15;0.57;;;32.90;65.70;;;;;;5035985;28;20061;-73
2023/07/18 11:48:22;;;;;;;1.80;0.40;;;33.30;65.00;;;;;;5054579;28;20035;-74
2023/07/18 11:50:49;;;;;;;3.20;0.60;;;33.70;64.30;;;;;;5036685;28;20040;-74
2023/07/18 11:53:25;;;;;;;1.40;0.50;;;33.90;63.50;;;;;;5055317;28;20021;-75
2023/07/18 11:55:54;;;;;;;3.65;0.85;;;34.20;62.60;;;;;;5036334;28;20033;-74
2023/07/18 11:58:21;;;;;;;1.90;0.40;;;34.30;60.20;;;;;;5055508;28;20041;-74
2023/07/18 12:00:48;;;;;;;2.05;0.60;;;34.30;59.90;;;;;;5034388;28;20079;-75
2023/07/18 12:03:15;;;;;;;1.63;0.40;;;34.40;59.00;;;;;;5021755;28;20381;-76
2023/07/18 12:05:41;;;;;;;1.55;0.40;;;34.70;59.20;;;;;;5051493;28;20400;-72
2023/07/18 12:08:08;;;;;;;1.85;0.40;;;35.00;58.00;;;;;;5035386;28;20029;-74
2023/07/18 12:10:35;;;;;;;3.22;0.57;;;35.10;57.50;;;;;;5037068;28;20051;-75
2023/07/18 12:13:02;;;;;;;2.58;0.40;;;35.30;57.10;;;;;;5054795;28;20060;-74
2023/07/18 12:15:28;;;;;;;1.45;0.35;;;35.30;56.30;;;;;;5055045;28;20335;-73
2023/07/18 12:17:56;;;;;;;1.77;0.40;;;34.70;55.80;;;;;;5034843;28;20444;-73
2023/07/18 12:20:22;;;;;;;1.30;0.30;;;34.60;56.40;;;;;;5000787;28;20040;-73
2023/07/18 12:22:49;;;;;;;1.40;0.30;;;34.90;56.60;;;;;;5053284;28;20472;-73
2023/07/18 12:25:17;;;;;;;0.85;0.30;;;35.40;55.60;;;;;;5020153;28;20359;-73
2023/07/18 12:27:43;;;;;;;1.33;0.30;;;35.80;55.30;;;;;;5036283;28;20029;-73
2023/07/18 12:30:12;;;;;;;1.60;0.30;;;36.20;54.00;;;;;;5022875;28;20040;-71
2023/07/18 12:32:38;;;;;;;0.98;0.30;;;36.40;53.40;;;;;;5053859;28;20033;-73
2023/07/18 12:35:05;;;;;;;1.20;0.30;;;36.80;52.70;;;;;;5038363;28;20511;-73
2023/07/18 12:37:32;;;;;;;1.13;0.30;;;37.10;52.40;;;;;;5054778;28;20032;-73
2023/07/18 12:39:58;;;;;;;1.38;0.30;;;37.40;52.00;;;;;;5038620;28;20035;-71
2023/07/18 12:42:25;;;;;;;1.42;0.30;;;37.60;51.20;;;;;;5034861;28;20032;-71
2023/07/18 12:44:51;;;;;;;3.13;0.40;;;37.80;51.20;;;;;;5054186;28;20036;-71
2023/07/18 12:47:18;;;;;;;0.90;0.20;;;38.10;50.90;;;;;;5034689;28;20506;-71
2023/07/18 12:49:44;;;;;;;0.80;0.30;;;38.40;50.00;;;;;;5053347;28;20029;-71
2023/07/18 12:52:11;;;;;;;1.50;0.30;;;38.70;49.30;;;;;;5021242;28;20032;-71